METAR UND TAF INFORMATION

METAR FOR LIPR
ADDS - METARS form results

(0440 UTC 26 June 2022)
Data provider http://aviationweather.gov/metar/data/
 
METAR text: LIPR 260420Z AUTO VRB02KT 9999 NCD 20/16 Q1014
Conditions at: LIPR (RIMINI (CIV/IT-A, IT) observed 0420 UTC 26 June 2022
Temperature: 20.0°C (68°F)
Dewpoint: 16.0°C (61°F) [RH = 78%]
Pressure (altimeter): 29.94 inches Hg (1014.0 mb)
Winds: variable direction winds at 2 MPH (2 knots; 1.0 m/s)
Visibility: 6 or more miles (10+ km)
Ceiling: at least 12,000 feet AGL
Clouds: sky clear below 12,000 feet AGL
Weather: no significant weather observed at this time

METAR text: LIPR 260350Z AUTO VRB02KT 9999 NCD 19/15 Q1014
Conditions at: LIPR (RIMINI (CIV/IT-A, IT) observed 0350 UTC 26 June 2022
Temperature: 19.0°C (66°F)
Dewpoint: 15.0°C (59°F) [RH = 78%]
Pressure (altimeter): 29.94 inches Hg (1014.0 mb)
Winds: variable direction winds at 2 MPH (2 knots; 1.0 m/s)
Visibility: 6 or more miles (10+ km)
Ceiling: at least 12,000 feet AGL
Clouds: sky clear below 12,000 feet AGL
Weather: no significant weather observed at this time

Forecast for: LIPR (RIMINI (CIV/IT-A, IT)
Text: TAF LIPR 252300Z 2600/2624 VRB05KT CAVOK
Forecast period: 0000 to 0900 UTC 26 June 2022
Forecast type: FROM: standard forecast or significant change
Winds: variable direction winds at 6 MPH (5 knots; 2.6 m/s)
Visibility: 6 or more miles (10+ km)
Ceiling: unknown
Clouds: missing
Weather: NSW  (no significant weather)
Text: BECMG 2609/2611 09012KT
Forecast period: 0900 to 1700 UTC 26 June 2022
Forecast type: BECOMING: Conditions expected to become as follows by 1100 UTC 26 June 2022
Winds: from the E (90 degrees) at 14 MPH (12 knots; 6.2 m/s)
Visibility: 6 or more miles (10+ km)
Ceiling: unknown
Clouds: missing
Weather: NSW  (no significant weather)
Text: BECMG 2617/2619 VRB05KT
Forecast period: 1700 UTC 26 June 2022 to 0000 UTC 27 June 2022
Forecast type: BECOMING: Conditions expected to become as follows by 1900 UTC 26 June 2022
Winds: variable direction winds at 6 MPH (5 knots; 2.6 m/s)
Visibility: 6 or more miles (10+ km)
Ceiling: unknown
Clouds: missing
Weather: NSW  (no significant weather)

 FLUGHAFENKARTE

 RUNWAY INFORMATION
Runway 13 Runway length 9828 ft Runway width 148 ft
Runway elevation 21 ft Runway displaced threshold 1030 ft Runway heading 128
Runway 31 Runway length 9828 ft Runway width 148 ft
Runway elevation 39 ft Runway displaced threshold 1006 ft Runway heading 308

 AIRPORT FREQUENCIES
Type APP Name ROMAGNA AP Frequency 118.15 MHZ
Type APP Name ROMAGNA AP Frequency 36.23 MHZ
Type GCCD Name GND/CLNC D Frequency 121.6 MHZ
Type TWR Name TWR Frequency 119.1 MHZ

 AIRPORT NEAR NAVIGATION AIDS
Type VORTAC Name Rimini Frequency 116200 KHZ
Type NDB Name Rimini Frequency 335 KHZ